Iron Gate, Virginia
Current Conditions -  °F | °C
As of 4:15 AM on Thursday 23 Oct 2014 (Local Time) from KHSP Reporting Station
Overcast Overcast  
Wind Chill: 28°   Ceiling: 600
Heat Index: 39°   Visibility: 10mi
Dew Point: 37°   Wind: 25mph
Humidity: 92%   Direction: 310°NW
Pressure: 30"   Gusts: 30mph
Location:  37.8°N, 79.79°W
Report Text: KHSP 230815Z AUTO 31022G26KT 10SM OVC006 04/03 A3000 RMK AO2 T00370025
Loading
Personal Weather Stations






























Interactive Weather Map
Tropical Storm Tracking
New forecast layout! Learn more

10-Day Weather Forecast

Advertisements
Track Severe Weather on mobile